Arthur, IN

2:35 PM EDT on October 31, 2014 (GMT -0400)
1 Block West of Oakland City University | Change Station
CLOSE
Current Station
Personal Weather Station
Location: Oakland City, IN
Elevation: 490 ft
Nearby Weather Stations
Active Advisory: Freeze Warning

Elev 490 ft 38.34 °N, 87.35 °W | Updated 2 seconds ago

Overcast
Overcast
44.2 °F
Feels Like 37 °F
N
17.0
Wind Variable Wind from WNW
Gusts 22.0 mph

Today
High -- | Low -- °F
--% Chance of Precip.
Yesterday
High -- | Low -- °F
Precip. -- in
8:14 AM 6:50 PM
First Quarter, 57% visible
Pressure 30.07 in
Visibility 10.0 miles
Clouds Mostly Cloudy 2600 ft
Overcast 3500 ft
Windchill 37 °F
Dew Point 32 °F
Humidity 61%
Rainfall 0.02 in
Snow Depth Not available.
UV 1 out of 12
Pollen .90 out of 12
Air Quality Not available.
Flu Activity Not available.
METAR KHNB 311815Z AUTO 36019G23KT 10SM BKN026 OVC035 06/M01 A3007 RMK AO1

More Conditions Fewer Conditions

Pressure 30.07 in
Visibility 10.0 miles
Clouds Mostly Cloudy 2600 ft
Overcast 3500 ft
Windchill 37 °F
Dew Point 32 °F
Humidity 61%
Rainfall 0.02 in
Snow Depth Not available.
UV 1 out of 12
Pollen .90 out of 12
Air Quality Not available.
Flu Activity Not available.
METAR KHNB 311815Z AUTO 36019G23KT 10SM BKN026 OVC035 06/M01 A3007 RMK AO1

More Conditions Fewer Conditions

10-Day Weather Forecast

Almanac

Astronomy

Oct. 31, 2014 Rise Set
Actual Time
Civil Twilight
Nautical Twilight
Astronomical Twilight
Moon
Length of Visible Light
Length of Day
Tomorrow will be .
, % of the Moon is Illuminated

Today's Extremes

State Highs State Lows

Community

WunderPhotos

Upload Photos

1,766,690 photos uploaded!

WunderBlogs® & News

Nearby

Air Quality

  Air Quality AQ Index Pollutant
Not available.

Snow Depth

Station Depth Elevation

Earthquake Activity

City Distance Mag. Time & Date
Minimum magnitude displayed is 2.5.

Coastal Water Temperatures

Place Temperature

Nearby Weather Stations